Time;durP1;ratioP1;P1;durP2;ratioP2;P2;SDS_P1;SDS_P2;PMS_P1;PMS_P2;Temp;Humidity;BMP_temperature;BMP_pressure;BME280_temperature;BME280_humidity;BME280_pressure;Samples;Min_cycle;Max_cycle;Signal;HPM_P1;HPM_P2
2021/01/07 00:00:13;;;;;;;3.07;2.07;;;3.10;99.90;;;;;;5052993;28;37850;-78
2021/01/07 00:02:39;;;;;;;3.20;1.80;;;3.10;99.90;;;;;;5030447;28;37459;-78
2021/01/07 00:05:06;;;;;;;5.60;2.70;;;3.10;99.90;;;;;;5034767;28;37675;-78
2021/01/07 00:07:33;;;;;;;4.20;2.07;;;3.20;99.90;;;;;;5039960;28;39075;-78
2021/01/07 00:10:00;;;;;;;5.03;2.33;;;3.20;99.90;;;;;;5043889;28;38166;-78
2021/01/07 00:12:27;;;;;;;4.97;2.13;;;3.10;99.90;;;;;;5047087;28;37076;-78
2021/01/07 00:14:53;;;;;;;4.67;2.23;;;3.20;99.90;;;;;;5049302;28;39855;-78
2021/01/07 00:17:19;;;;;;;4.13;2.00;;;3.20;99.90;;;;;;5031269;28;39640;-78
2021/01/07 00:19:45;;;;;;;4.93;2.13;;;3.10;99.90;;;;;;5030674;28;36083;-78
2021/01/07 00:22:11;;;;;;;5.47;3.10;;;3.10;99.90;;;;;;5047785;28;37781;-78
2021/01/07 00:24:37;;;;;;;3.77;2.40;;;3.20;99.90;;;;;;5027531;28;38915;-78
2021/01/07 00:27:04;;;;;;;6.63;3.50;;;3.10;99.90;;;;;;5027470;28;38259;-78
2021/01/07 00:29:30;;;;;;;7.50;2.80;;;3.10;99.90;;;;;;5020803;28;39618;-78
2021/01/07 00:31:56;;;;;;;7.90;4.23;;;3.10;99.90;;;;;;5047233;28;37952;-78
2021/01/07 00:34:22;;;;;;;6.33;3.37;;;3.10;99.90;;;;;;5047437;28;39810;-78
2021/01/07 00:36:56;;;;;;;4.97;2.93;;;3.20;99.90;;;;;;5030476;28;39119;-78
2021/01/07 00:39:22;;;;;;;2.63;2.00;;;3.20;99.90;;;;;;5047245;28;37893;-78
2021/01/07 00:41:56;;;;;;;4.43;2.30;;;3.10;99.90;;;;;;5044215;28;37878;-78
2021/01/07 00:44:22;;;;;;;4.33;2.23;;;3.10;99.90;;;;;;5017093;28;38033;-78
2021/01/07 00:46:50;;;;;;;2.63;1.40;;;3.20;99.90;;;;;;5045929;28;41427;-78
2021/01/07 00:49:17;;;;;;;4.10;1.40;;;3.10;99.90;;;;;;5041279;28;38240;-78
2021/01/07 00:51:43;;;;;;;5.30;0.97;;;3.10;99.90;;;;;;5025528;28;36052;-78
2021/01/07 00:54:10;;;;;;;2.87;1.03;;;3.10;99.90;;;;;;5028892;28;37603;-77
2021/01/07 00:56:37;;;;;;;1.93;1.27;;;3.10;99.90;;;;;;5028602;28;40697;-77
2021/01/07 00:59:05;;;;;;;4.63;2.07;;;3.10;99.90;;;;;;5027498;28;37142;-77
2021/01/07 01:01:32;;;;;;;2.37;1.00;;;3.10;99.90;;;;;;5024787;28;36870;-77
2021/01/07 01:03:58;;;;;;;3.97;2.20;;;3.00;99.90;;;;;;5044913;28;39540;-77
2021/01/07 01:06:31;;;;;;;5.60;2.27;;;3.00;99.90;;;;;;5028136;28;38789;-77
2021/01/07 01:08:57;;;;;;;4.20;2.73;;;3.00;99.90;;;;;;5044773;28;38025;-78
2021/01/07 01:11:24;;;;;;;5.30;3.03;;;3.10;99.90;;;;;;5044826;28;37582;-78
2021/01/07 01:13:50;;;;;;;8.23;2.90;;;3.10;99.90;;;;;;5041209;28;39560;-77
2021/01/07 01:16:17;;;;;;;3.80;2.03;;;3.00;99.90;;;;;;5032180;28;38549;-78
2021/01/07 01:18:43;;;;;;;4.23;2.77;;;3.00;99.90;;;;;;5033481;28;39775;-77
2021/01/07 01:21:09;;;;;;;5.97;2.83;;;3.00;99.90;;;;;;5014413;28;37552;-77
2021/01/07 01:23:35;;;;;;;5.37;2.80;;;3.00;99.90;;;;;;5046135;28;38817;-78
2021/01/07 01:26:02;;;;;;;3.37;2.70;;;2.90;99.90;;;;;;5043273;28;37453;-78
2021/01/07 01:28:28;;;;;;;5.17;3.00;;;2.90;99.90;;;;;;5014643;28;35819;-77
2021/01/07 01:30:54;;;;;;;7.00;3.40;;;2.90;99.90;;;;;;5036135;28;37091;-77
2021/01/07 01:33:20;;;;;;;3.83;2.40;;;2.90;99.90;;;;;;5043627;28;39227;-78
2021/01/07 01:35:46;;;;;;;4.60;2.53;;;2.80;99.90;;;;;;5046018;28;39293;-78
2021/01/07 01:38:12;;;;;;;7.07;2.80;;;2.90;99.90;;;;;;5022200;28;38214;-77
2021/01/07 01:40:38;;;;;;;4.13;2.57;;;2.80;99.90;;;;;;5025895;28;37084;-78
2021/01/07 01:43:04;;;;;;;5.40;2.90;;;2.80;99.90;;;;;;5030259;28;40593;-78
2021/01/07 01:45:30;;;;;;;4.50;2.10;;;2.80;99.90;;;;;;5028302;28;40227;-78
2021/01/07 01:47:57;;;;;;;3.50;2.27;;;2.90;99.90;;;;;;5033745;28;39967;-78
2021/01/07 01:50:23;;;;;;;2.63;2.00;;;2.80;99.90;;;;;;5046482;28;37336;-78
2021/01/07 01:52:49;;;;;;;4.50;3.17;;;2.80;99.90;;;;;;5045265;28;39765;-78
2021/01/07 01:55:15;;;;;;;5.23;4.73;;;2.90;99.90;;;;;;5041215;28;38210;-79
2021/01/07 01:57:45;;;;;;;7.67;6.13;;;2.90;99.90;;;;;;5038551;28;38762;-78
2021/01/07 02:00:12;;;;;;;8.63;5.40;;;2.90;99.90;;;;;;5030171;28;39142;-78
2021/01/07 02:02:38;;;;;;;7.77;6.00;;;3.00;99.90;;;;;;5048014;28;38006;-78
2021/01/07 02:05:04;;;;;;;6.20;5.47;;;3.00;99.90;;;;;;5046385;28;38146;-77
2021/01/07 02:07:31;;;;;;;7.60;4.63;;;3.00;99.90;;;;;;5024623;28;46664;-78
2021/01/07 02:10:00;;;;;;;6.63;3.90;;;3.00;99.90;;;;;;5046286;28;37987;-78
2021/01/07 02:12:26;;;;;;;5.27;3.00;;;3.00;99.90;;;;;;5009579;28;39700;-78
2021/01/07 02:14:52;;;;;;;6.00;2.77;;;3.00;99.90;;;;;;5006250;28;38589;-78
2021/01/07 02:17:19;;;;;;;4.50;2.80;;;3.00;99.90;;;;;;5045991;28;38194;-78
2021/01/07 02:19:45;;;;;;;6.10;2.80;;;3.00;99.90;;;;;;5027116;28;37604;-78
2021/01/07 02:22:14;;;;;;;5.33;2.60;;;3.10;99.90;;;;;;5028073;28;39148;-79
2021/01/07 02:24:40;;;;;;;2.80;1.70;;;3.00;99.90;;;;;;5034265;28;39231;-79
2021/01/07 02:27:09;;;;;;;7.17;2.60;;;3.10;99.90;;;;;;5043682;28;38347;-78
2021/01/07 02:29:37;;;;;;;7.93;2.50;;;3.10;99.90;;;;;;5037284;28;39491;-78
2021/01/07 02:32:04;;;;;;;4.77;2.40;;;3.10;99.90;;;;;;5042808;28;38694;-78
2021/01/07 02:34:31;;;;;;;6.27;3.03;;;3.10;99.90;;;;;;5027726;28;38892;-78
2021/01/07 02:36:57;;;;;;;7.37;2.90;;;3.10;99.90;;;;;;5029193;28;37922;-78
2021/01/07 02:39:24;;;;;;;6.60;3.17;;;3.10;99.90;;;;;;5021475;28;37658;-78
2021/01/07 02:41:51;;;;;;;4.53;2.43;;;3.10;99.90;;;;;;5028699;28;40720;-78
2021/01/07 02:44:17;;;;;;;7.27;2.87;;;3.00;99.90;;;;;;5025614;28;38041;-78
2021/01/07 02:46:43;;;;;;;4.33;1.93;;;3.10;99.90;;;;;;5022128;28;38810;-78
2021/01/07 02:49:09;;;;;;;3.10;1.60;;;3.10;99.90;;;;;;5028680;28;38079;-77
2021/01/07 02:51:35;;;;;;;7.30;1.80;;;3.10;99.90;;;;;;5045843;28;38609;-78
2021/01/07 02:54:02;;;;;;;3.10;1.60;;;3.00;99.90;;;;;;5044573;28;40851;-78
2021/01/07 02:56:31;;;;;;;3.83;1.93;;;3.10;99.90;;;;;;5027056;28;37461;-78
2021/01/07 02:58:57;;;;;;;2.53;1.97;;;3.10;99.90;;;;;;5048404;28;39234;-78
2021/01/07 03:01:23;;;;;;;5.10;1.73;;;3.10;99.90;;;;;;5047207;28;38300;-78
2021/01/07 03:03:49;;;;;;;2.87;1.53;;;3.10;99.90;;;;;;5051171;28;38924;-78
2021/01/07 03:06:15;;;;;;;6.73;2.17;;;3.00;99.90;;;;;;5050376;28;37992;-78
2021/01/07 03:08:41;;;;;;;3.00;1.57;;;3.10;99.90;;;;;;5031914;28;37798;-78
2021/01/07 03:11:07;;;;;;;3.80;1.70;;;3.10;99.90;;;;;;5029363;28;39320;-77
2021/01/07 03:13:34;;;;;;;10.03;1.33;;;3.00;99.90;;;;;;5023880;28;39205;-78
2021/01/07 03:16:00;;;;;;;2.07;1.30;;;3.00;99.90;;;;;;5047595;28;38092;-78
2021/01/07 03:18:26;;;;;;;4.70;1.23;;;3.00;99.90;;;;;;5041286;28;36308;-78
2021/01/07 03:20:52;;;;;;;6.43;1.60;;;3.00;99.90;;;;;;5048151;28;40285;-77
2021/01/07 03:23:18;;;;;;;2.77;1.50;;;3.10;99.90;;;;;;5042262;28;39229;-77
2021/01/07 03:25:44;;;;;;;3.97;1.50;;;3.10;99.90;;;;;;5037545;28;38145;-78
2021/01/07 03:28:10;;;;;;;2.87;1.40;;;3.10;99.90;;;;;;5049851;28;37425;-78
2021/01/07 03:30:36;;;;;;;1.57;0.90;;;3.10;99.90;;;;;;5043301;28;39915;-78
2021/01/07 03:33:02;;;;;;;4.97;1.67;;;3.10;99.90;;;;;;5048526;28;38531;-78
2021/01/07 03:35:29;;;;;;;4.67;1.57;;;3.10;99.90;;;;;;5030252;28;38586;-78
2021/01/07 03:37:55;;;;;;;4.13;1.80;;;3.10;99.90;;;;;;5029059;28;36831;-78
2021/01/07 03:40:21;;;;;;;1.57;1.10;;;3.10;99.90;;;;;;5018316;28;39473;-78
2021/01/07 03:42:47;;;;;;;3.10;1.33;;;3.10;99.90;;;;;;5045259;28;37321;-78
2021/01/07 03:45:14;;;;;;;4.47;0.97;;;3.10;99.90;;;;;;5028757;28;38056;-78
2021/01/07 03:47:40;;;;;;;2.60;0.97;;;3.20;99.90;;;;;;5050623;28;37361;-78
2021/01/07 03:50:07;;;;;;;1.80;0.97;;;3.10;99.90;;;;;;5026469;28;39712;-78
2021/01/07 03:52:33;;;;;;;1.93;0.70;;;3.20;99.90;;;;;;5048495;28;38724;-78
2021/01/07 03:54:59;;;;;;;0.67;0.30;;;3.20;99.90;;;;;;5047213;28;38092;-78
2021/01/07 03:57:25;;;;;;;0.60;0.60;;;3.20;99.90;;;;;;5040831;28;38237;-78
2021/01/07 03:59:51;;;;;;;4.20;0.50;;;3.20;99.90;;;;;;5029119;28;37934;-78
2021/01/07 04:02:17;;;;;;;4.37;0.60;;;3.20;99.90;;;;;;5032036;28;38169;-78
2021/01/07 04:04:43;;;;;;;1.73;0.40;;;3.20;99.90;;;;;;5049998;28;38871;-79
2021/01/07 04:07:09;;;;;;;1.77;0.50;;;3.20;99.90;;;;;;5055345;28;36808;-79
2021/01/07 04:09:35;;;;;;;4.47;0.67;;;3.10;99.90;;;;;;5044265;28;38933;-79
2021/01/07 04:12:02;;;;;;;4.47;0.80;;;3.20;99.90;;;;;;5047914;28;37532;-79
2021/01/07 04:14:28;;;;;;;1.57;0.73;;;3.20;99.90;;;;;;5054517;28;38658;-80
2021/01/07 04:16:54;;;;;;;3.43;0.93;;;3.10;99.90;;;;;;5028634;28;36787;-79
2021/01/07 04:19:20;;;;;;;2.17;0.50;;;3.10;99.90;;;;;;5031987;28;39688;-79
2021/01/07 04:21:46;;;;;;;0.30;0.30;;;3.10;99.90;;;;;;5048819;28;37935;-79
2021/01/07 04:24:15;;;;;;;0.57;0.30;;;3.10;99.90;;;;;;5041133;28;37375;-79
2021/01/07 04:26:45;;;;;;;0.63;0.40;;;3.10;99.90;;;;;;5047365;28;37862;-79
2021/01/07 04:29:12;;;;;;;2.93;0.50;;;3.10;99.90;;;;;;5048723;28;39659;-79
2021/01/07 04:31:41;;;;;;;0.80;0.40;;;3.10;99.90;;;;;;5018365;28;37215;-79
2021/01/07 04:34:07;;;;;;;0.97;0.70;;;3.10;99.90;;;;;;5026146;28;38590;-79
2021/01/07 04:36:34;;;;;;;2.03;0.70;;;3.20;99.90;;;;;;5046427;28;37991;-80
2021/01/07 04:39:00;;;;;;;1.53;0.67;;;3.20;99.90;;;;;;5023552;28;38070;-79
2021/01/07 04:41:26;;;;;;;2.27;0.77;;;3.20;99.90;;;;;;5048224;28;38302;-79
2021/01/07 04:43:59;;;;;;;5.07;0.70;;;3.20;99.90;;;;;;5032188;28;37087;-79
2021/01/07 04:46:25;;;;;;;0.77;0.77;;;3.10;99.90;;;;;;5043964;28;36924;-80
2021/01/07 04:48:52;;;;;;;1.60;0.50;;;3.10;99.90;;;;;;5045924;28;38321;-79
2021/01/07 04:51:18;;;;;;;0.83;0.50;;;3.10;99.90;;;;;;5032455;28;37411;-79
2021/01/07 04:53:45;;;;;;;3.30;0.50;;;3.10;99.90;;;;;;5031178;28;37038;-78
2021/01/07 04:56:11;;;;;;;1.93;0.70;;;3.10;99.90;;;;;;5043682;28;37254;-80
2021/01/07 04:58:38;;;;;;;5.00;0.70;;;3.10;99.90;;;;;;5048204;28;38992;-79
2021/01/07 05:01:04;;;;;;;2.50;0.70;;;3.10;99.90;;;;;;5046160;28;38406;-79
2021/01/07 05:03:32;;;;;;;2.60;0.83;;;3.10;99.90;;;;;;5039444;28;37979;-80
2021/01/07 05:05:58;;;;;;;3.63;0.90;;;3.10;99.90;;;;;;5040623;28;36457;-80
2021/01/07 05:08:24;;;;;;;1.70;0.50;;;3.10;99.90;;;;;;5043936;28;39684;-79
2021/01/07 05:10:51;;;;;;;2.87;0.80;;;3.10;99.90;;;;;;5041988;28;38519;-79
2021/01/07 05:13:18;;;;;;;2.50;0.80;;;3.10;99.90;;;;;;5046016;28;38400;-79
2021/01/07 05:15:44;;;;;;;2.00;0.67;;;3.20;99.90;;;;;;5056234;28;37018;-79
2021/01/07 05:18:11;;;;;;;2.93;0.60;;;3.20;99.90;;;;;;5021842;28;37890;-79
2021/01/07 05:20:37;;;;;;;1.83;0.60;;;3.20;99.90;;;;;;5032128;28;37843;-79
2021/01/07 05:23:04;;;;;;;3.47;0.90;;;3.30;99.90;;;;;;5052212;28;37604;-79
2021/01/07 05:25:30;;;;;;;3.43;0.90;;;3.40;99.90;;;;;;5050224;28;35785;-79
2021/01/07 05:28:01;;;;;;;2.93;0.87;;;3.30;99.90;;;;;;5051321;28;38680;-79
2021/01/07 05:30:28;;;;;;;4.77;1.47;;;3.40;99.90;;;;;;5030714;28;47048;-80
2021/01/07 05:33:05;;;;;;;2.40;0.57;;;3.40;99.90;;;;;;5026437;28;37297;-79
2021/01/07 05:35:32;;;;;;;10.17;1.73;;;3.30;99.90;;;;;;5028987;28;47389;-80
2021/01/07 05:38:00;;;;;;;6.83;0.80;;;3.40;99.90;;;;;;5047441;28;37235;-80
2021/01/07 05:40:27;;;;;;;1.80;0.50;;;3.40;99.90;;;;;;5029723;28;39968;-79
2021/01/07 05:42:59;;;;;;;1.27;0.50;;;3.40;99.90;;;;;;5048459;28;38170;-78
2021/01/07 05:45:39;;;;;;;4.22;0.77;;;3.40;99.90;;;;;;5036424;28;38191;-79
2021/01/07 05:48:06;;;;;;;1.87;0.90;;;3.40;99.90;;;;;;5047403;28;37658;-79
2021/01/07 05:50:38;;;;;;;1.80;0.77;;;3.40;99.90;;;;;;5050250;28;38526;-79
2021/01/07 05:53:04;;;;;;;3.35;0.85;;;3.40;99.90;;;;;;5044799;28;38114;-79
2021/01/07 05:55:31;;;;;;;5.93;1.10;;;3.40;99.90;;;;;;5041287;28;37351;-79
2021/01/07 05:58:02;;;;;;;3.63;1.20;;;3.40;99.90;;;;;;5043678;28;38318;-80
2021/01/07 06:00:33;;;;;;;3.90;0.80;;;3.40;99.90;;;;;;5021157;28;47171;-79
2021/01/07 06:03:03;;;;;;;3.40;1.10;;;3.40;99.90;;;;;;5024966;28;37561;-78
2021/01/07 06:05:30;;;;;;;3.97;0.80;;;3.40;99.90;;;;;;5034882;28;47489;-78
2021/01/07 06:07:57;;;;;;;2.30;0.93;;;3.30;99.90;;;;;;5047940;28;38266;-79
2021/01/07 06:10:24;;;;;;;3.80;1.00;;;3.30;99.90;;;;;;5042962;28;37546;-79
2021/01/07 06:12:51;;;;;;;5.87;1.10;;;3.30;99.90;;;;;;5023618;28;37514;-78
2021/01/07 06:15:20;;;;;;;4.90;0.90;;;3.30;99.90;;;;;;5030789;28;38033;-78
2021/01/07 06:17:47;;;;;;;1.60;0.60;;;3.30;99.90;;;;;;5027212;28;38633;-79
2021/01/07 06:20:14;;;;;;;4.73;0.90;;;3.30;99.90;;;;;;5031019;28;37761;-79
2021/01/07 06:22:43;;;;;;;3.20;0.97;;;3.30;99.90;;;;;;5046112;28;38293;-80
2021/01/07 06:25:11;;;;;;;4.20;0.80;;;3.30;99.90;;;;;;5026966;28;36519;-79
2021/01/07 06:27:41;;;;;;;6.40;0.80;;;3.40;99.90;;;;;;5044787;28;39842;-79
2021/01/07 06:30:06;;;;;;;3.27;1.50;;;3.40;99.90;;;;;;5019298;28;38548;-78
2021/01/07 06:32:34;;;;;;;5.70;1.47;;;3.40;99.90;;;;;;5046746;28;37418;-79
2021/01/07 06:35:00;;;;;;;4.17;1.97;;;3.30;99.90;;;;;;5048577;28;37370;-79
2021/01/07 06:37:55;;;;;;;4.90;1.90;;;3.30;99.90;;;;;;5026803;28;40540;-78
2021/01/07 06:40:23;;;;;;;5.10;1.83;;;3.40;99.90;;;;;;5009021;28;38074;-79
2021/01/07 06:42:51;;;;;;;5.17;2.20;;;3.40;99.90;;;;;;5028337;28;37263;-79
2021/01/07 06:45:22;;;;;;;4.47;1.90;;;3.40;99.90;;;;;;5046263;28;37199;-79
2021/01/07 06:47:50;;;;;;;3.10;1.63;;;3.40;99.90;;;;;;5028049;28;40294;-79
2021/01/07 06:50:16;;;;;;;9.17;1.80;;;3.40;99.90;;;;;;5027763;28;38895;-79
2021/01/07 06:52:47;;;;;;;2.37;1.30;;;3.40;99.90;;;;;;5010614;28;38946;-79
2021/01/07 06:55:16;;;;;;;4.73;1.67;;;3.40;99.90;;;;;;5023417;28;37807;-79
2021/01/07 06:57:47;;;;;;;5.40;1.83;;;3.40;99.90;;;;;;5016208;28;37788;-79
2021/01/07 07:00:18;;;;;;;2.97;1.30;;;3.40;99.90;;;;;;5038358;28;39324;-79
2021/01/07 07:03:01;;;;;;;5.03;1.40;;;3.40;99.90;;;;;;5004923;28;39802;-80
2021/01/07 07:05:37;;;;;;;5.22;0.90;;;3.40;99.90;;;;;;5020315;28;48796;-79
2021/01/07 07:08:10;;;;;;;5.70;0.97;;;3.50;99.90;;;;;;5023081;28;38474;-79
2021/01/07 07:10:39;;;;;;;8.93;1.33;;;3.50;99.90;;;;;;5028277;28;38494;-80
2021/01/07 07:13:19;;;;;;;6.90;1.57;;;3.50;99.90;;;;;;5043183;28;38618;-80
2021/01/07 07:15:48;;;;;;;10.43;1.83;;;3.50;99.90;;;;;;5030123;28;37409;-79
2021/01/07 07:18:34;;;;;;;6.40;1.50;;;3.40;99.90;;;;;;5027554;28;39354;-79
2021/01/07 07:21:16;;;;;;;4.50;1.07;;;3.40;99.90;;;;;;5037564;28;37821;-79
2021/01/07 07:23:44;;;;;;;3.75;0.98;;;3.20;99.90;;;;;;5041156;28;46521;-79
2021/01/07 07:26:12;;;;;;;5.83;0.80;;;3.20;99.90;;;;;;5027075;28;37912;-80
2021/01/07 07:28:43;;;;;;;5.20;0.77;;;3.20;99.90;;;;;;5042453;28;40396;-78
2021/01/07 07:31:10;;;;;;;3.70;0.80;;;3.20;99.90;;;;;;5023860;28;40615;-78
2021/01/07 07:33:41;;;;;;;1.63;0.73;;;3.20;99.90;;;;;;5039220;28;38340;-80
2021/01/07 07:36:09;;;;;;;1.37;0.50;;;3.20;99.90;;;;;;5046033;28;37280;-79
2021/01/07 07:38:40;;;;;;;4.03;0.73;;;3.20;99.90;;;;;;5031665;28;39667;-80
2021/01/07 07:41:11;;;;;;;4.57;0.60;;;3.20;99.90;;;;;;5035118;28;38978;-80
2021/01/07 07:43:39;;;;;;;5.17;0.70;;;3.10;99.90;;;;;;5040145;28;38113;-80
2021/01/07 07:46:07;;;;;;;4.47;0.80;;;3.10;99.90;;;;;;5062625;28;38455;-80
2021/01/07 07:48:34;;;;;;;3.23;0.60;;;3.10;99.90;;;;;;5066560;28;40711;-80
2021/01/07 07:51:09;;;;;;;3.43;0.70;;;3.10;99.90;;;;;;5048790;28;37412;-80
2021/01/07 07:53:37;;;;;;;5.77;0.90;;;3.10;99.90;;;;;;5046185;28;48446;-80
2021/01/07 07:56:04;;;;;;;4.20;0.77;;;3.10;99.90;;;;;;5018528;28;38307;-79
2021/01/07 07:58:30;;;;;;;2.77;1.00;;;3.00;99.90;;;;;;5044645;28;39591;-80
2021/01/07 08:00:58;;;;;;;2.27;0.90;;;3.00;99.90;;;;;;5063310;28;38277;-81
2021/01/07 08:03:31;;;;;;;3.80;0.73;;;3.00;99.90;;;;;;5053485;28;38161;-80
2021/01/07 08:05:59;;;;;;;2.77;1.37;;;3.00;99.90;;;;;;5050305;28;37921;-80
2021/01/07 08:08:29;;;;;;;3.23;0.70;;;3.00;99.90;;;;;;5061900;28;39201;-80
2021/01/07 08:10:57;;;;;;;4.40;0.83;;;3.00;99.90;;;;;;5042199;28;37481;-80
2021/01/07 08:13:28;;;;;;;2.47;0.80;;;2.90;99.90;;;;;;5056818;28;40607;-80
2021/01/07 08:15:59;;;;;;;2.03;0.70;;;2.90;99.90;;;;;;5042520;28;37232;-81
2021/01/07 08:18:26;;;;;;;1.50;0.70;;;2.80;99.90;;;;;;5054074;28;38690;-80
2021/01/07 08:20:54;;;;;;;2.97;0.67;;;2.70;99.90;;;;;;5037126;28;39120;-80
2021/01/07 08:23:21;;;;;;;3.07;1.00;;;2.70;99.90;;;;;;5050888;28;38755;-80
2021/01/07 08:25:52;;;;;;;3.73;0.90;;;2.70;99.90;;;;;;5039071;28;36948;-80
2021/01/07 08:28:37;;;;;;;4.00;0.77;;;2.70;99.90;;;;;;5032189;28;37526;-80
2021/01/07 08:31:11;;;;;;;8.57;1.57;;;2.70;99.90;;;;;;5028116;28;38568;-80
2021/01/07 08:33:38;;;;;;;6.07;1.00;;;2.80;99.90;;;;;;5038703;28;36873;-80
2021/01/07 08:36:08;;;;;;;5.80;1.23;;;2.80;99.90;;;;;;5031523;28;37443;-79
2021/01/07 08:38:36;;;;;;;4.17;0.90;;;2.80;99.90;;;;;;5048127;28;40287;-80
2021/01/07 08:41:12;;;;;;;4.53;1.47;;;2.90;99.90;;;;;;5052346;28;38537;-80
2021/01/07 08:43:39;;;;;;;3.53;1.00;;;3.00;99.90;;;;;;5031616;28;37072;-79
2021/01/07 08:46:18;;;;;;;6.00;1.83;;;3.10;99.90;;;;;;5027236;28;38335;-79
2021/01/07 08:48:56;;;;;;;4.53;1.23;;;3.00;99.90;;;;;;5043556;28;39943;-78
2021/01/07 08:51:22;;;;;;;2.10;1.20;;;3.00;99.90;;;;;;5039423;28;39067;-79
2021/01/07 08:53:50;;;;;;;5.37;0.97;;;2.90;99.90;;;;;;5055793;28;38684;-79
2021/01/07 08:56:36;;;;;;;4.33;1.10;;;2.90;99.90;;;;;;5038064;28;37353;-79
2021/01/07 08:59:21;;;;;;;6.27;1.80;;;3.00;99.90;;;;;;5036446;28;40364;-78
2021/01/07 09:01:50;;;;;;;6.00;1.20;;;3.10;99.90;;;;;;5044682;28;48820;-79
2021/01/07 09:04:26;;;;;;;3.13;1.30;;;3.10;99.90;;;;;;5035320;28;38881;-78
2021/01/07 09:07:03;;;;;;;7.33;1.40;;;3.20;99.90;;;;;;5040814;28;38522;-80
2021/01/07 09:09:52;;;;;;;5.57;1.73;;;3.30;99.90;;;;;;5041107;28;47325;-78
2021/01/07 09:12:34;;;;;;;5.90;1.97;;;3.30;99.90;;;;;;5029799;28;37655;-78
2021/01/07 09:15:22;;;;;;;5.20;1.03;;;3.40;99.90;;;;;;5028912;28;38997;-78
2021/01/07 09:17:52;;;;;;;6.40;1.30;;;3.40;99.90;;;;;;5040390;28;46985;-78
2021/01/07 09:20:20;;;;;;;4.87;1.33;;;3.40;99.90;;;;;;5039410;28;40540;-78
2021/01/07 09:22:48;;;;;;;9.90;1.50;;;3.50;99.90;;;;;;5009584;28;39150;-78
2021/01/07 09:25:19;;;;;;;3.50;1.33;;;3.60;99.90;;;;;;5035373;28;39065;-79
2021/01/07 09:27:51;;;;;;;14.53;1.70;;;3.70;99.90;;;;;;5037563;28;37063;-77
2021/01/07 09:30:18;;;;;;;8.48;1.90;;;3.80;99.90;;;;;;5042675;28;39624;-78
2021/01/07 09:32:45;;;;;;;7.03;1.70;;;3.90;99.90;;;;;;5046771;28;39452;-78
2021/01/07 09:35:12;;;;;;;8.80;1.60;;;4.00;99.90;;;;;;5027968;28;38312;-78
2021/01/07 09:37:38;;;;;;;6.83;2.37;;;4.10;99.90;;;;;;5040247;28;36887;-78
2021/01/07 09:40:06;;;;;;;10.53;2.10;;;4.20;99.90;;;;;;5025184;28;39510;-78
2021/01/07 09:42:33;;;;;;;12.00;1.90;;;4.20;99.90;;;;;;5035896;28;39155;-78
2021/01/07 09:45:00;;;;;;;8.60;1.80;;;4.20;99.90;;;;;;5035273;28;38152;-79
2021/01/07 09:47:27;;;;;;;8.70;1.83;;;4.30;99.90;;;;;;5040200;28;38615;-79
2021/01/07 09:49:53;;;;;;;8.97;2.10;;;4.30;99.90;;;;;;5030382;28;39470;-79
2021/01/07 09:52:19;;;;;;;9.07;1.90;;;4.40;99.90;;;;;;5036084;28;38451;-79
2021/01/07 09:54:45;;;;;;;10.03;3.20;;;4.50;99.90;;;;;;5032751;28;38935;-79
2021/01/07 09:57:12;;;;;;;9.30;2.47;;;4.50;99.90;;;;;;5046375;28;38122;-78
2021/01/07 09:59:38;;;;;;;11.30;2.30;;;4.60;99.90;;;;;;5026935;28;39160;-79
2021/01/07 10:02:11;;;;;;;11.30;2.23;;;4.60;99.90;;;;;;5041054;28;38403;-78
2021/01/07 10:04:41;;;;;;;5.93;2.07;;;4.60;99.90;;;;;;5041934;28;38767;-78
2021/01/07 10:07:08;;;;;;;9.37;1.97;;;4.70;99.90;;;;;;5044853;28;37231;-78
2021/01/07 10:09:35;;;;;;;6.20;1.57;;;4.80;99.90;;;;;;5029806;28;39347;-78
2021/01/07 10:12:01;;;;;;;11.23;2.63;;;4.80;99.90;;;;;;5042238;28;37921;-78
2021/01/07 10:14:28;;;;;;;9.60;1.80;;;4.80;99.90;;;;;;5047380;28;48873;-78
2021/01/07 10:16:57;;;;;;;7.63;1.40;;;4.80;99.90;;;;;;5037519;28;38351;-79
2021/01/07 10:19:25;;;;;;;3.30;1.17;;;4.90;99.90;;;;;;5027158;28;40472;-77
2021/01/07 10:22:09;;;;;;;5.47;1.33;;;4.90;99.90;;;;;;5038852;28;38649;-78
2021/01/07 10:24:47;;;;;;;9.43;1.70;;;4.90;99.90;;;;;;5033638;28;48575;-78
2021/01/07 10:27:17;;;;;;;6.67;1.23;;;4.90;99.90;;;;;;5037124;28;37864;-78
2021/01/07 10:29:45;;;;;;;5.73;1.33;;;4.90;99.90;;;;;;5025863;28;39398;-78
2021/01/07 10:32:14;;;;;;;4.07;1.00;;;4.80;99.90;;;;;;5023891;28;39333;-79
2021/01/07 10:34:45;;;;;;;5.83;1.30;;;4.70;99.90;;;;;;5039316;28;38345;-78
2021/01/07 10:37:12;;;;;;;8.23;1.30;;;4.70;99.90;;;;;;5026437;28;39025;-78
2021/01/07 10:39:42;;;;;;;12.50;3.30;;;4.70;99.90;;;;;;5028553;28;39100;-77
2021/01/07 10:42:10;;;;;;;12.27;2.03;;;4.70;99.90;;;;;;5041359;28;39393;-78
2021/01/07 10:44:38;;;;;;;7.93;1.47;;;4.70;99.90;;;;;;5016127;28;39231;-78
2021/01/07 10:47:07;;;;;;;11.27;2.00;;;4.80;99.90;;;;;;5003226;28;38204;-78
2021/01/07 10:49:35;;;;;;;11.33;1.70;;;4.90;99.90;;;;;;5017775;28;40557;-78
2021/01/07 10:52:07;;;;;;;9.67;1.67;;;4.90;99.90;;;;;;5021941;28;40642;-78
2021/01/07 10:55:08;;;;;;;11.57;1.63;;;4.90;99.90;;;;;;5042093;28;40098;-78
2021/01/07 10:57:53;;;;;;;5.90;1.37;;;4.80;99.90;;;;;;5028605;28;47390;-77
2021/01/07 11:00:51;;;;;;;5.97;1.40;;;4.80;99.90;;;;;;5008478;28;40307;-78
2021/01/07 11:03:31;;;;;;;4.90;1.20;;;4.70;99.90;;;;;;5042091;28;39582;-78
2021/01/07 11:06:08;;;;;;;5.27;1.47;;;4.70;99.90;;;;;;5032879;28;38226;-79
2021/01/07 11:08:34;;;;;;;13.70;1.87;;;4.60;99.90;;;;;;5030220;28;47704;-77
2021/01/07 11:11:25;;;;;;;6.70;1.10;;;4.60;99.90;;;;;;5043652;28;39896;-78
2021/01/07 11:14:17;;;;;;;7.90;1.67;;;4.50;99.90;;;;;;5045267;28;48898;-79
2021/01/07 11:17:08;;;;;;;7.97;1.57;;;4.40;99.90;;;;;;5040555;28;48030;-78
2021/01/07 11:19:36;;;;;;;7.47;1.43;;;4.40;99.90;;;;;;5032394;28;48899;-78
2021/01/07 11:22:12;;;;;;;6.67;1.50;;;4.40;99.90;;;;;;5043933;28;39881;-78
2021/01/07 11:24:40;;;;;;;9.97;1.50;;;4.40;99.90;;;;;;5034490;28;39904;-78
2021/01/07 11:27:06;;;;;;;7.67;1.43;;;4.40;99.90;;;;;;5026150;28;38961;-78
2021/01/07 11:29:37;;;;;;;6.93;1.50;;;4.40;99.90;;;;;;5048586;28;37182;-78
2021/01/07 11:32:04;;;;;;;4.03;1.10;;;4.40;99.90;;;;;;5038415;28;38962;-78
2021/01/07 11:34:32;;;;;;;6.90;1.40;;;4.40;99.90;;;;;;5024522;28;40279;-77
2021/01/07 11:37:14;;;;;;;13.27;2.20;;;4.40;99.90;;;;;;5029343;28;38518;-78
2021/01/07 11:40:04;;;;;;;7.90;1.80;;;4.40;99.90;;;;;;5043412;28;49114;-78
2021/01/07 11:42:36;;;;;;;5.90;1.40;;;4.50;99.90;;;;;;5030386;28;48668;-78
2021/01/07 11:45:07;;;;;;;9.98;1.35;;;4.60;99.90;;;;;;5044480;28;38615;-78
2021/01/07 11:47:40;;;;;;;14.17;3.00;;;4.60;99.90;;;;;;5036730;28;48306;-78
2021/01/07 11:50:08;;;;;;;8.63;1.30;;;4.60;99.90;;;;;;5042996;28;37588;-78
2021/01/07 11:52:37;;;;;;;5.73;1.60;;;4.60;99.90;;;;;;5038624;28;38311;-79
2021/01/07 11:55:04;;;;;;;9.47;1.60;;;4.70;99.90;;;;;;5046958;28;39174;-78
2021/01/07 11:57:35;;;;;;;7.70;1.50;;;4.80;99.90;;;;;;5019155;28;39606;-78
2021/01/07 12:00:03;;;;;;;10.43;1.37;;;4.80;99.90;;;;;;5047805;28;36542;-78
2021/01/07 12:02:30;;;;;;;8.53;1.53;;;4.90;99.90;;;;;;5014407;28;47212;-78
2021/01/07 12:04:59;;;;;;;10.60;1.53;;;5.00;99.90;;;;;;5054217;28;40192;-78
2021/01/07 12:07:43;;;;;;;6.80;1.80;;;5.10;99.90;;;;;;5034404;28;38490;-78
2021/01/07 12:10:10;;;;;;;7.33;1.37;;;5.10;99.90;;;;;;5028120;28;38511;-78
2021/01/07 12:12:48;;;;;;;4.40;1.47;;;5.20;99.90;;;;;;5044297;28;38536;-78
2021/01/07 12:15:16;;;;;;;9.03;1.53;;;5.30;99.90;;;;;;5027901;28;38657;-79
2021/01/07 12:17:43;;;;;;;4.10;1.60;;;5.30;99.90;;;;;;5044615;28;38061;-78
2021/01/07 12:20:11;;;;;;;4.30;1.43;;;5.40;99.90;;;;;;5023138;28;36603;-78
2021/01/07 12:22:38;;;;;;;6.90;1.30;;;5.40;99.90;;;;;;5045224;28;38472;-77
2021/01/07 12:25:05;;;;;;;9.27;1.10;;;5.40;99.90;;;;;;5021624;28;38806;-78
2021/01/07 12:27:34;;;;;;;6.07;1.27;;;5.40;99.90;;;;;;5047520;28;38457;-77
2021/01/07 12:30:04;;;;;;;5.63;1.17;;;5.50;99.90;;;;;;5037520;28;38311;-78
2021/01/07 12:32:33;;;;;;;6.30;1.23;;;5.40;99.90;;;;;;5024951;28;47075;-78
2021/01/07 12:35:06;;;;;;;7.80;1.80;;;5.40;99.90;;;;;;5024529;28;37419;-78
2021/01/07 12:37:53;;;;;;;6.30;1.67;;;5.50;99.90;;;;;;5039732;28;47932;-77
2021/01/07 12:40:21;;;;;;;8.17;1.10;;;5.50;99.90;;;;;;5042530;28;37004;-77
2021/01/07 12:42:54;;;;;;;6.70;1.20;;;5.50;99.90;;;;;;5044836;28;38863;-78
2021/01/07 12:45:21;;;;;;;7.55;1.10;;;5.50;99.90;;;;;;5025175;28;37783;-76
2021/01/07 12:47:47;;;;;;;5.37;1.30;;;5.60;99.90;;;;;;5036585;28;35350;-77
2021/01/07 12:50:13;;;;;;;5.93;1.37;;;5.60;99.90;;;;;;5025923;28;36399;-77
2021/01/07 12:52:40;;;;;;;10.33;1.20;;;5.60;99.90;;;;;;5047798;28;39241;-77
2021/01/07 12:55:09;;;;;;;4.87;1.13;;;5.60;99.90;;;;;;5043684;28;39270;-77
2021/01/07 12:57:55;;;;;;;4.23;1.00;;;5.60;99.90;;;;;;5028108;28;39386;-78
2021/01/07 13:00:28;;;;;;;5.20;1.00;;;5.60;99.90;;;;;;5000272;28;37663;-78
2021/01/07 13:03:16;;;;;;;3.60;1.40;;;5.50;99.90;;;;;;5038196;28;38194;-77
2021/01/07 13:05:50;;;;;;;5.47;0.90;;;5.60;99.90;;;;;;5018695;28;47327;-78